sensor_id;sensor_type;location;lat;lon;timestamp;P1;durP1;ratioP1;P2;durP2;ratioP2
18194;SDS011;9223;50.988;3.162;2023-02-08T00:02:16;40.77;;;19.60;;
18194;SDS011;9223;50.988;3.162;2023-02-08T00:08:20;37.00;;;19.70;;
18194;SDS011;9223;50.988;3.162;2023-02-08T00:14:23;33.53;;;18.27;;
18194;SDS011;9223;50.988;3.162;2023-02-08T00:20:28;33.07;;;18.27;;
18194;SDS011;9223;50.988;3.162;2023-02-08T00:26:32;34.20;;;18.87;;
18194;SDS011;9223;50.988;3.162;2023-02-08T00:32:35;35.53;;;18.60;;
18194;SDS011;9223;50.988;3.162;2023-02-08T00:38:40;27.10;;;16.77;;
18194;SDS011;9223;50.988;3.162;2023-02-08T00:44:44;31.57;;;17.93;;
18194;SDS011;9223;50.988;3.162;2023-02-08T00:50:55;32.17;;;18.17;;
18194;SDS011;9223;50.988;3.162;2023-02-08T00:57:00;32.30;;;17.90;;
18194;SDS011;9223;50.988;3.162;2023-02-08T01:03:03;32.03;;;16.40;;
18194;SDS011;9223;50.988;3.162;2023-02-08T01:09:07;31.87;;;16.80;;
18194;SDS011;9223;50.988;3.162;2023-02-08T01:15:12;31.90;;;17.43;;
18194;SDS011;9223;50.988;3.162;2023-02-08T01:21:16;29.30;;;16.70;;
18194;SDS011;9223;50.988;3.162;2023-02-08T01:27:19;36.17;;;18.47;;
18194;SDS011;9223;50.988;3.162;2023-02-08T01:33:24;33.13;;;17.90;;
18194;SDS011;9223;50.988;3.162;2023-02-08T01:39:28;31.00;;;17.43;;
18194;SDS011;9223;50.988;3.162;2023-02-08T01:45:31;76.27;;;35.93;;
18194;SDS011;9223;50.988;3.162;2023-02-08T01:51:37;32.73;;;17.93;;
18194;SDS011;9223;50.988;3.162;2023-02-08T01:57:41;29.83;;;18.17;;
18194;SDS011;9223;50.988;3.162;2023-02-08T02:03:45;32.33;;;16.83;;
18194;SDS011;9223;50.988;3.162;2023-02-08T02:09:51;33.27;;;17.27;;
18194;SDS011;9223;50.988;3.162;2023-02-08T02:15:55;33.93;;;18.20;;
18194;SDS011;9223;50.988;3.162;2023-02-08T02:22:02;34.13;;;17.83;;
18194;SDS011;9223;50.988;3.162;2023-02-08T02:28:14;32.60;;;17.13;;
18194;SDS011;9223;50.988;3.162;2023-02-08T02:34:23;29.50;;;16.13;;
18194;SDS011;9223;50.988;3.162;2023-02-08T02:40:29;29.73;;;16.97;;
18194;SDS011;9223;50.988;3.162;2023-02-08T02:46:37;31.70;;;17.33;;
18194;SDS011;9223;50.988;3.162;2023-02-08T02:52:44;28.93;;;16.80;;
18194;SDS011;9223;50.988;3.162;2023-02-08T02:58:48;30.80;;;16.80;;
18194;SDS011;9223;50.988;3.162;2023-02-08T03:04:54;30.70;;;16.50;;
18194;SDS011;9223;50.988;3.162;2023-02-08T03:11:15;25.57;;;16.00;;
18194;SDS011;9223;50.988;3.162;2023-02-08T03:17:32;26.77;;;15.67;;
18194;SDS011;9223;50.988;3.162;2023-02-08T03:23:38;33.13;;;16.53;;
18194;SDS011;9223;50.988;3.162;2023-02-08T03:29:46;31.93;;;17.13;;
18194;SDS011;9223;50.988;3.162;2023-02-08T03:35:52;32.47;;;17.23;;
18194;SDS011;9223;50.988;3.162;2023-02-08T03:41:58;31.93;;;16.90;;
18194;SDS011;9223;50.988;3.162;2023-02-08T03:48:04;26.97;;;16.07;;
18194;SDS011;9223;50.988;3.162;2023-02-08T03:54:10;28.60;;;17.80;;
18194;SDS011;9223;50.988;3.162;2023-02-08T04:00:15;30.17;;;16.67;;
18194;SDS011;9223;50.988;3.162;2023-02-08T04:06:20;28.80;;;16.87;;
18194;SDS011;9223;50.988;3.162;2023-02-08T04:12:24;34.27;;;18.83;;
18194;SDS011;9223;50.988;3.162;2023-02-08T04:18:27;29.13;;;17.90;;
18194;SDS011;9223;50.988;3.162;2023-02-08T04:24:32;25.17;;;15.27;;
18194;SDS011;9223;50.988;3.162;2023-02-08T04:30:35;27.37;;;15.30;;
18194;SDS011;9223;50.988;3.162;2023-02-08T04:36:40;23.37;;;14.80;;
18194;SDS011;9223;50.988;3.162;2023-02-08T04:42:44;25.67;;;15.60;;
18194;SDS011;9223;50.988;3.162;2023-02-08T04:48:48;29.30;;;16.00;;
18194;SDS011;9223;50.988;3.162;2023-02-08T04:54:51;26.73;;;14.77;;
18194;SDS011;9223;50.988;3.162;2023-02-08T05:00:56;26.40;;;15.33;;
18194;SDS011;9223;50.988;3.162;2023-02-08T05:07:00;25.90;;;15.10;;
18194;SDS011;9223;50.988;3.162;2023-02-08T05:13:03;26.43;;;14.27;;
18194;SDS011;9223;50.988;3.162;2023-02-08T05:19:09;27.10;;;15.03;;
18194;SDS011;9223;50.988;3.162;2023-02-08T05:25:12;23.90;;;14.27;;
18194;SDS011;9223;50.988;3.162;2023-02-08T05:31:18;23.13;;;14.20;;
18194;SDS011;9223;50.988;3.162;2023-02-08T05:37:24;30.30;;;14.90;;
18194;SDS011;9223;50.988;3.162;2023-02-08T05:43:28;24.77;;;14.63;;
18194;SDS011;9223;50.988;3.162;2023-02-08T05:49:31;22.50;;;13.77;;
18194;SDS011;9223;50.988;3.162;2023-02-08T05:55:36;26.23;;;15.53;;
18194;SDS011;9223;50.988;3.162;2023-02-08T06:01:40;25.70;;;15.50;;
18194;SDS011;9223;50.988;3.162;2023-02-08T06:07:43;27.57;;;15.77;;
18194;SDS011;9223;50.988;3.162;2023-02-08T06:13:48;23.40;;;16.03;;
18194;SDS011;9223;50.988;3.162;2023-02-08T06:19:51;25.03;;;16.40;;
18194;SDS011;9223;50.988;3.162;2023-02-08T06:25:55;33.27;;;19.63;;
18194;SDS011;9223;50.988;3.162;2023-02-08T06:32:00;36.30;;;19.80;;
18194;SDS011;9223;50.988;3.162;2023-02-08T06:38:03;35.20;;;20.60;;
18194;SDS011;9223;50.988;3.162;2023-02-08T06:44:07;43.47;;;21.13;;
18194;SDS011;9223;50.988;3.162;2023-02-08T06:50:12;34.67;;;20.23;;
18194;SDS011;9223;50.988;3.162;2023-02-08T06:56:16;33.90;;;19.13;;
18194;SDS011;9223;50.988;3.162;2023-02-08T07:02:20;30.43;;;19.10;;
18194;SDS011;9223;50.988;3.162;2023-02-08T07:08:24;28.97;;;17.67;;
18194;SDS011;9223;50.988;3.162;2023-02-08T07:14:28;28.23;;;17.43;;
18194;SDS011;9223;50.988;3.162;2023-02-08T07:20:31;27.83;;;17.43;;
18194;SDS011;9223;50.988;3.162;2023-02-08T07:26:36;30.23;;;17.83;;
18194;SDS011;9223;50.988;3.162;2023-02-08T07:32:40;36.37;;;19.03;;
18194;SDS011;9223;50.988;3.162;2023-02-08T07:38:43;33.40;;;19.00;;
18194;SDS011;9223;50.988;3.162;2023-02-08T07:44:48;28.63;;;17.47;;
18194;SDS011;9223;50.988;3.162;2023-02-08T07:50:52;39.57;;;26.83;;
18194;SDS011;9223;50.988;3.162;2023-02-08T07:56:55;37.75;;;25.95;;
18194;SDS011;9223;50.988;3.162;2023-02-08T08:03:01;33.27;;;20.67;;
18194;SDS011;9223;50.988;3.162;2023-02-08T08:09:04;30.23;;;20.67;;
18194;SDS011;9223;50.988;3.162;2023-02-08T08:15:08;41.42;;;29.23;;
18194;SDS011;9223;50.988;3.162;2023-02-08T08:21:13;36.87;;;22.87;;
18194;SDS011;9223;50.988;3.162;2023-02-08T08:27:17;37.20;;;22.27;;
18194;SDS011;9223;50.988;3.162;2023-02-08T08:33:20;41.30;;;23.23;;
18194;SDS011;9223;50.988;3.162;2023-02-08T08:39:26;35.73;;;21.30;;
18194;SDS011;9223;50.988;3.162;2023-02-08T08:45:29;38.07;;;22.57;;
18194;SDS011;9223;50.988;3.162;2023-02-08T08:51:33;42.33;;;23.17;;
18194;SDS011;9223;50.988;3.162;2023-02-08T08:57:37;38.17;;;24.20;;
18194;SDS011;9223;50.988;3.162;2023-02-08T09:03:41;39.37;;;24.93;;
18194;SDS011;9223;50.988;3.162;2023-02-08T09:09:44;42.77;;;25.57;;
18194;SDS011;9223;50.988;3.162;2023-02-08T09:15:50;48.67;;;27.63;;
18194;SDS011;9223;50.988;3.162;2023-02-08T09:21:53;45.97;;;27.77;;
18194;SDS011;9223;50.988;3.162;2023-02-08T09:27:58;35.70;;;22.93;;
18194;SDS011;9223;50.988;3.162;2023-02-08T09:34:03;36.88;;;27.05;;
18194;SDS011;9223;50.988;3.162;2023-02-08T09:40:10;33.63;;;20.37;;
18194;SDS011;9223;50.988;3.162;2023-02-08T09:46:17;32.67;;;20.20;;
18194;SDS011;9223;50.988;3.162;2023-02-08T09:52:23;32.13;;;19.53;;
18194;SDS011;9223;50.988;3.162;2023-02-08T09:58:29;35.10;;;21.60;;
18194;SDS011;9223;50.988;3.162;2023-02-08T10:04:36;32.67;;;22.10;;
18194;SDS011;9223;50.988;3.162;2023-02-08T10:10:47;37.33;;;22.90;;
18194;SDS011;9223;50.988;3.162;2023-02-08T10:16:55;36.47;;;25.37;;
18194;SDS011;9223;50.988;3.162;2023-02-08T10:23:05;36.50;;;21.45;;
18194;SDS011;9223;50.988;3.162;2023-02-08T10:35:31;39.92;;;22.13;;
18194;SDS011;9223;50.988;3.162;2023-02-08T10:41:37;70.70;;;29.27;;
18194;SDS011;9223;50.988;3.162;2023-02-08T10:47:41;30.27;;;18.83;;
18194;SDS011;9223;50.988;3.162;2023-02-08T10:53:47;28.83;;;18.33;;
18194;SDS011;9223;50.988;3.162;2023-02-08T10:59:52;21.08;;;13.80;;
18194;SDS011;9223;50.988;3.162;2023-02-08T11:05:57;24.08;;;14.02;;
18194;SDS011;9223;50.988;3.162;2023-02-08T11:12:01;24.67;;;16.80;;
18194;SDS011;9223;50.988;3.162;2023-02-08T11:18:05;23.93;;;16.27;;
18194;SDS011;9223;50.988;3.162;2023-02-08T11:24:19;20.27;;;15.38;;
18194;SDS011;9223;50.988;3.162;2023-02-08T11:30:27;15.18;;;10.90;;
18194;SDS011;9223;50.988;3.162;2023-02-08T11:36:32;14.85;;;9.40;;
18194;SDS011;9223;50.988;3.162;2023-02-08T11:42:38;13.75;;;9.32;;
18194;SDS011;9223;50.988;3.162;2023-02-08T11:48:48;15.38;;;10.32;;
18194;SDS011;9223;50.988;3.162;2023-02-08T11:54:52;15.55;;;9.77;;
18194;SDS011;9223;50.988;3.162;2023-02-08T12:00:57;15.55;;;10.73;;
18194;SDS011;9223;50.988;3.162;2023-02-08T12:07:17;16.50;;;10.65;;
18194;SDS011;9223;50.988;3.162;2023-02-08T12:13:33;14.05;;;9.82;;
18194;SDS011;9223;50.988;3.162;2023-02-08T12:26:07;15.98;;;9.05;;
18194;SDS011;9223;50.988;3.162;2023-02-08T12:32:21;12.65;;;8.85;;
18194;SDS011;9223;50.988;3.162;2023-02-08T12:38:29;14.07;;;9.43;;
18194;SDS011;9223;50.988;3.162;2023-02-08T12:44:57;13.65;;;9.73;;
18194;SDS011;9223;50.988;3.162;2023-02-08T12:51:06;14.88;;;10.43;;
18194;SDS011;9223;50.988;3.162;2023-02-08T12:57:15;13.60;;;8.68;;
18194;SDS011;9223;50.988;3.162;2023-02-08T13:03:25;19.20;;;8.95;;
18194;SDS011;9223;50.988;3.162;2023-02-08T13:09:34;12.30;;;8.30;;
18194;SDS011;9223;50.988;3.162;2023-02-08T13:15:42;13.50;;;8.77;;
18194;SDS011;9223;50.988;3.162;2023-02-08T13:21:48;10.40;;;7.15;;
18194;SDS011;9223;50.988;3.162;2023-02-08T13:27:53;12.07;;;7.13;;
18194;SDS011;9223;50.988;3.162;2023-02-08T13:33:58;13.10;;;6.90;;
18194;SDS011;9223;50.988;3.162;2023-02-08T13:40:06;7.70;;;5.45;;
18194;SDS011;9223;50.988;3.162;2023-02-08T13:46:10;12.55;;;5.88;;
18194;SDS011;9223;50.988;3.162;2023-02-08T13:52:44;6.80;;;5.65;;
18194;SDS011;9223;50.988;3.162;2023-02-08T13:58:59;10.18;;;5.45;;
18194;SDS011;9223;50.988;3.162;2023-02-08T14:11:28;6.93;;;4.55;;
18194;SDS011;9223;50.988;3.162;2023-02-08T14:17:35;8.15;;;5.28;;
18194;SDS011;9223;50.988;3.162;2023-02-08T14:23:39;6.20;;;4.03;;
18194;SDS011;9223;50.988;3.162;2023-02-08T14:29:42;5.50;;;3.80;;
18194;SDS011;9223;50.988;3.162;2023-02-08T14:35:51;6.53;;;4.03;;
18194;SDS011;9223;50.988;3.162;2023-02-08T14:41:56;6.47;;;4.60;;
18194;SDS011;9223;50.988;3.162;2023-02-08T14:48:18;6.28;;;3.58;;
18194;SDS011;9223;50.988;3.162;2023-02-08T14:54:24;4.90;;;4.05;;
18194;SDS011;9223;50.988;3.162;2023-02-08T15:00:31;4.85;;;4.30;;
18194;SDS011;9223;50.988;3.162;2023-02-08T15:06:48;5.78;;;3.78;;
18194;SDS011;9223;50.988;3.162;2023-02-08T15:13:00;6.03;;;4.20;;
18194;SDS011;9223;50.988;3.162;2023-02-08T15:19:06;5.25;;;3.85;;
18194;SDS011;9223;50.988;3.162;2023-02-08T15:25:21;7.95;;;5.00;;
18194;SDS011;9223;50.988;3.162;2023-02-08T15:31:27;10.32;;;5.55;;
18194;SDS011;9223;50.988;3.162;2023-02-08T15:37:32;8.27;;;4.63;;
18194;SDS011;9223;50.988;3.162;2023-02-08T15:43:37;6.60;;;5.03;;
18194;SDS011;9223;50.988;3.162;2023-02-08T15:49:43;10.73;;;4.70;;
18194;SDS011;9223;50.988;3.162;2023-02-08T15:55:47;8.30;;;5.97;;
18194;SDS011;9223;50.988;3.162;2023-02-08T16:01:52;6.50;;;4.40;;
18194;SDS011;9223;50.988;3.162;2023-02-08T16:07:57;6.03;;;3.83;;
18194;SDS011;9223;50.988;3.162;2023-02-08T16:14:02;7.10;;;5.25;;
18194;SDS011;9223;50.988;3.162;2023-02-08T16:20:21;10.30;;;6.55;;
18194;SDS011;9223;50.988;3.162;2023-02-08T16:26:30;4.72;;;3.60;;
18194;SDS011;9223;50.988;3.162;2023-02-08T16:32:35;6.63;;;3.67;;
18194;SDS011;9223;50.988;3.162;2023-02-08T16:38:40;6.57;;;3.88;;
18194;SDS011;9223;50.988;3.162;2023-02-08T16:44:57;7.30;;;4.30;;
18194;SDS011;9223;50.988;3.162;2023-02-08T16:51:02;19.73;;;12.48;;
18194;SDS011;9223;50.988;3.162;2023-02-08T16:57:06;16.55;;;9.68;;
18194;SDS011;9223;50.988;3.162;2023-02-08T17:03:11;17.50;;;9.98;;
18194;SDS011;9223;50.988;3.162;2023-02-08T17:09:15;20.17;;;9.18;;
18194;SDS011;9223;50.988;3.162;2023-02-08T17:15:18;19.83;;;9.57;;
18194;SDS011;9223;50.988;3.162;2023-02-08T17:21:24;14.98;;;6.85;;
18194;SDS011;9223;50.988;3.162;2023-02-08T17:27:28;15.20;;;7.82;;
18194;SDS011;9223;50.988;3.162;2023-02-08T17:33:32;19.02;;;14.43;;
18194;SDS011;9223;50.988;3.162;2023-02-08T17:39:41;17.98;;;10.85;;
18194;SDS011;9223;50.988;3.162;2023-02-08T17:45:45;14.40;;;10.25;;
18194;SDS011;9223;50.988;3.162;2023-02-08T17:51:48;11.55;;;7.50;;
18194;SDS011;9223;50.988;3.162;2023-02-08T17:57:53;12.32;;;9.02;;
18194;SDS011;9223;50.988;3.162;2023-02-08T18:03:57;15.48;;;7.85;;
18194;SDS011;9223;50.988;3.162;2023-02-08T18:10:02;13.85;;;7.60;;
18194;SDS011;9223;50.988;3.162;2023-02-08T18:16:07;16.50;;;7.80;;
18194;SDS011;9223;50.988;3.162;2023-02-08T18:22:11;13.13;;;7.30;;
18194;SDS011;9223;50.988;3.162;2023-02-08T18:28:14;16.88;;;8.88;;
18194;SDS011;9223;50.988;3.162;2023-02-08T18:34:19;28.67;;;16.63;;
18194;SDS011;9223;50.988;3.162;2023-02-08T18:40:23;20.05;;;10.95;;
18194;SDS011;9223;50.988;3.162;2023-02-08T18:46:27;21.10;;;13.55;;
18194;SDS011;9223;50.988;3.162;2023-02-08T18:52:32;20.50;;;15.32;;
18194;SDS011;9223;50.988;3.162;2023-02-08T18:58:36;26.85;;;18.10;;
18194;SDS011;9223;50.988;3.162;2023-02-08T19:04:39;29.30;;;17.35;;
18194;SDS011;9223;50.988;3.162;2023-02-08T19:10:44;25.15;;;15.70;;
18194;SDS011;9223;50.988;3.162;2023-02-08T19:16:47;29.50;;;16.45;;
18194;SDS011;9223;50.988;3.162;2023-02-08T19:22:51;22.92;;;14.52;;
18194;SDS011;9223;50.988;3.162;2023-02-08T19:28:56;21.75;;;12.93;;
18194;SDS011;9223;50.988;3.162;2023-02-08T19:35:00;27.92;;;14.95;;
18194;SDS011;9223;50.988;3.162;2023-02-08T19:41:04;26.60;;;16.35;;
18194;SDS011;9223;50.988;3.162;2023-02-08T19:47:09;24.92;;;15.30;;
18194;SDS011;9223;50.988;3.162;2023-02-08T19:53:12;25.50;;;19.42;;
18194;SDS011;9223;50.988;3.162;2023-02-08T19:59:17;25.40;;;15.38;;
18194;SDS011;9223;50.988;3.162;2023-02-08T20:05:22;27.30;;;14.90;;
18194;SDS011;9223;50.988;3.162;2023-02-08T20:11:26;20.60;;;13.95;;
18194;SDS011;9223;50.988;3.162;2023-02-08T20:17:30;20.90;;;14.38;;
18194;SDS011;9223;50.988;3.162;2023-02-08T20:23:35;33.35;;;19.08;;
18194;SDS011;9223;50.988;3.162;2023-02-08T20:29:39;40.67;;;19.40;;
18194;SDS011;9223;50.988;3.162;2023-02-08T20:35:42;31.58;;;18.58;;
18194;SDS011;9223;50.988;3.162;2023-02-08T20:41:48;34.40;;;18.58;;
18194;SDS011;9223;50.988;3.162;2023-02-08T20:47:51;33.45;;;18.15;;
18194;SDS011;9223;50.988;3.162;2023-02-08T20:53:55;33.47;;;17.42;;
18194;SDS011;9223;50.988;3.162;2023-02-08T21:00:01;28.33;;;16.80;;
18194;SDS011;9223;50.988;3.162;2023-02-08T21:06:10;23.73;;;15.77;;
18194;SDS011;9223;50.988;3.162;2023-02-08T21:12:14;25.98;;;15.75;;
18194;SDS011;9223;50.988;3.162;2023-02-08T21:18:19;28.02;;;15.85;;
18194;SDS011;9223;50.988;3.162;2023-02-08T21:24:22;27.17;;;16.05;;
18194;SDS011;9223;50.988;3.162;2023-02-08T21:30:27;26.92;;;16.30;;
18194;SDS011;9223;50.988;3.162;2023-02-08T21:36:32;24.63;;;16.05;;
18194;SDS011;9223;50.988;3.162;2023-02-08T21:42:35;26.00;;;17.58;;
18194;SDS011;9223;50.988;3.162;2023-02-08T21:48:39;28.15;;;21.35;;
18194;SDS011;9223;50.988;3.162;2023-02-08T21:55:02;25.73;;;16.15;;
18194;SDS011;9223;50.988;3.162;2023-02-08T22:01:05;25.17;;;16.88;;
18194;SDS011;9223;50.988;3.162;2023-02-08T22:07:09;107.00;;;46.50;;
18194;SDS011;9223;50.988;3.162;2023-02-08T22:13:13;31.55;;;19.88;;
18194;SDS011;9223;50.988;3.162;2023-02-08T22:19:17;44.40;;;25.08;;
18194;SDS011;9223;50.988;3.162;2023-02-08T22:25:21;28.60;;;17.35;;
18194;SDS011;9223;50.988;3.162;2023-02-08T22:31:26;29.65;;;17.77;;
18194;SDS011;9223;50.988;3.162;2023-02-08T22:37:31;24.10;;;16.15;;
18194;SDS011;9223;50.988;3.162;2023-02-08T22:43:34;21.40;;;15.20;;
18194;SDS011;9223;50.988;3.162;2023-02-08T22:49:39;28.17;;;16.03;;
18194;SDS011;9223;50.988;3.162;2023-02-08T22:55:46;24.20;;;16.27;;
18194;SDS011;9223;50.988;3.162;2023-02-08T23:01:50;22.33;;;14.80;;
18194;SDS011;9223;50.988;3.162;2023-02-08T23:07:56;20.53;;;14.53;;
18194;SDS011;9223;50.988;3.162;2023-02-08T23:13:59;21.47;;;14.63;;
18194;SDS011;9223;50.988;3.162;2023-02-08T23:20:03;22.73;;;15.50;;
18194;SDS011;9223;50.988;3.162;2023-02-08T23:26:08;25.33;;;15.33;;
18194;SDS011;9223;50.988;3.162;2023-02-08T23:32:12;24.97;;;15.00;;
18194;SDS011;9223;50.988;3.162;2023-02-08T23:38:15;24.63;;;15.70;;
18194;SDS011;9223;50.988;3.162;2023-02-08T23:44:20;24.10;;;14.90;;
18194;SDS011;9223;50.988;3.162;2023-02-08T23:50:23;22.80;;;14.57;;
18194;SDS011;9223;50.988;3.162;2023-02-08T23:56:27;21.43;;;14.83;;
